KFXY/FXY METAR and TAF weather

Enter ICAO airport designator
Station Type Date Time Source
KFXY METAR 2020/09/18 19:15 UTC NOAA

KFXY 181915Z AUTO 12005KT 10SM CLR 17/02 A3036 RMK AO2


Station Type Date Time Source
KFXY Decoded METAR 2020/09/18 19:15 UTC NOAA

Station name not available
Sep 18, 2020 - 03:15 PM EDT / 2020.09.18 1915 UTC
Wind: from the ESE (120 degrees) at 6 MPH (5 KT):0
Visibility: 10 mile(s):0
Sky conditions: clear
Temperature: 62 F (17 C)
Dew Point: 35 F (2 C)
Relative Humidity: 36%
Pressure (altimeter): 30.36 in. Hg (1028 hPa)
ob: KFXY 181915Z AUTO 12005KT 10SM CLR 17/02 A3036 RMK AO2
cycle: 19

Station Type Date Time Source
KFXY TAF UTC NOAA

Error!

Example: see airport list